LIS weather

Humberto Delgado Airport (Lisbon Portela Airport)
Lisbon, Lisbon District, Portugal

Public forecast

Using degrees Celsius for public forecast. Weather courtesy of forecast.io.

METAR (pilot weather report)

Retrieved 2019/03/23 22:30 UTC (6 minutes ago):

LPPT 232230Z 01006KT CAVOK 17/05 Q1019

TAF (pilot weather forecast)

Retrieved 2019/03/23 18:18 UTC (4 hours ago):

TAF LPPT 231700Z 2318/2424 08012KT CAVOK TEMPO 2318/2406 02005KT BECMG 2418/2421 36010KT